Time;durP1;ratioP1;P1;durP2;ratioP2;P2;SDS_P1;SDS_P2;PMS_P1;PMS_P2;Temp;Humidity;BMP_temperature;BMP_pressure;BME280_temperature;BME280_humidity;BME280_pressure;Samples;Min_cycle;Max_cycle;Signal;HPM_P1;HPM_P2
2023/06/24 00:00:45;;;;;;;18.05;10.30;;;19.90;99.90;;;;;;4955688;29;20187;-87
2023/06/24 00:03:16;;;;;;;22.85;10.60;;;19.90;99.90;;;;;;4956364;29;20207;-87
2023/06/24 00:05:43;;;;;;;18.40;10.60;;;19.90;99.90;;;;;;4938909;29;20168;-88
2023/06/24 00:08:08;;;;;;;23.52;11.52;;;19.90;99.90;;;;;;4954515;28;20325;-88
2023/06/24 00:10:40;;;;;;;21.05;10.70;;;20.00;99.90;;;;;;4955558;29;20270;-87
2023/06/24 00:13:05;;;;;;;21.15;10.38;;;19.90;99.90;;;;;;4939383;28;20195;-87
2023/06/24 00:15:36;;;;;;;21.08;12.20;;;20.00;99.90;;;;;;4954344;29;20650;-86
2023/06/24 00:18:05;;;;;;;22.58;11.10;;;20.00;99.90;;;;;;4954780;29;20195;-87
2023/06/24 00:20:34;;;;;;;22.88;11.82;;;20.00;99.90;;;;;;4955467;29;20175;-87
2023/06/24 00:23:00;;;;;;;17.40;10.98;;;20.00;99.90;;;;;;4938336;29;20187;-88
2023/06/24 00:25:31;;;;;;;18.70;11.80;;;20.00;99.90;;;;;;4955521;29;20640;-87
2023/06/24 00:28:00;;;;;;;19.73;12.30;;;20.00;99.90;;;;;;4955550;29;20215;-88
2023/06/24 00:30:27;;;;;;;20.55;11.73;;;20.00;99.90;;;;;;4955472;29;20531;-88
2023/06/24 00:32:55;;;;;;;18.85;11.20;;;20.00;99.90;;;;;;4950538;28;20191;-89
2023/06/24 00:35:21;;;;;;;19.15;11.75;;;20.00;99.90;;;;;;4959470;29;20209;-88
2023/06/24 00:37:58;;;;;;;17.38;11.27;;;19.90;99.90;;;;;;4957878;29;20265;-88
2023/06/24 00:40:29;;;;;;;15.80;10.20;;;19.90;99.90;;;;;;4938674;29;20178;-88
2023/06/24 00:43:05;;;;;;;14.30;9.82;;;19.80;99.90;;;;;;4955067;29;20183;-88
2023/06/24 00:45:31;;;;;;;13.90;8.00;;;19.70;99.90;;;;;;4954157;29;20167;-87
2023/06/24 00:48:10;;;;;;;14.50;7.15;;;19.70;99.90;;;;;;4953746;29;20233;-88
2023/06/24 00:50:45;;;;;;;9.30;6.25;;;19.50;99.90;;;;;;4937693;29;20533;-89
2023/06/24 00:53:11;;;;;;;13.73;5.35;;;19.50;99.90;;;;;;4954163;29;20174;-89
2023/06/24 00:55:38;;;;;;;7.97;5.72;;;19.40;99.90;;;;;;4954963;29;20209;-88
2023/06/24 00:58:07;;;;;;;7.03;4.65;;;19.30;99.90;;;;;;4955675;29;20186;-88
2023/06/24 01:00:56;;;;;;;7.68;4.82;;;19.30;99.90;;;;;;4957928;29;20175;-88
2023/06/24 01:03:25;;;;;;;7.50;4.65;;;19.30;99.90;;;;;;4921551;29;20564;-88
2023/06/24 01:05:57;;;;;;;7.25;4.45;;;19.20;99.90;;;;;;4960798;29;20218;-88
2023/06/24 01:08:26;;;;;;;6.93;4.82;;;19.20;99.90;;;;;;4960733;29;20241;-88
2023/06/24 01:11:03;;;;;;;6.63;4.25;;;19.20;99.90;;;;;;4956940;29;20179;-88
2023/06/24 01:13:39;;;;;;;8.98;4.47;;;19.10;99.90;;;;;;4959511;29;20167;-88
2023/06/24 01:16:20;;;;;;;7.78;4.47;;;19.10;99.90;;;;;;4960679;29;20214;-88
2023/06/24 01:18:58;;;;;;;7.93;4.30;;;19.10;99.90;;;;;;4960106;29;20183;-88
2023/06/24 01:21:44;;;;;;;8.02;4.25;;;19.10;99.90;;;;;;4961145;29;20152;-87
2023/06/24 01:24:57;;;;;;;6.75;4.28;;;19.00;99.90;;;;;;4960269;29;20172;-88
2023/06/24 01:28:08;;;;;;;7.25;4.03;;;18.90;99.90;;;;;;4905552;29;20640;-87
2023/06/24 01:31:21;;;;;;;6.13;3.90;;;18.80;99.90;;;;;;4961965;29;20173;-87
2023/06/24 01:33:56;;;;;;;6.78;4.38;;;18.70;99.90;;;;;;4963193;29;20167;-88
2023/06/24 01:36:25;;;;;;;7.28;4.07;;;18.70;99.90;;;;;;4947870;29;20206;-86
2023/06/24 01:39:02;;;;;;;8.77;4.35;;;18.80;99.90;;;;;;4962785;29;20179;-88
2023/06/24 01:41:36;;;;;;;5.18;3.53;;;18.80;99.90;;;;;;4962279;29;20273;-89
2023/06/24 01:44:03;;;;;;;8.70;4.10;;;18.70;99.90;;;;;;4959013;28;20167;-88
2023/06/24 01:46:30;;;;;;;4.78;3.28;;;18.60;99.90;;;;;;4973669;28;20274;-88
2023/06/24 01:49:01;;;;;;;6.43;4.00;;;18.60;99.90;;;;;;4958116;29;20199;-89
2023/06/24 01:51:27;;;;;;;7.72;3.83;;;18.50;99.90;;;;;;4958745;29;20163;-88
2023/06/24 01:54:00;;;;;;;5.88;3.70;;;18.50;99.90;;;;;;4958282;29;20175;-88
2023/06/24 01:56:27;;;;;;;8.48;3.65;;;18.40;99.90;;;;;;4973859;28;20219;-86
2023/06/24 01:58:55;;;;;;;8.38;3.50;;;18.40;99.90;;;;;;4959275;29;20255;-86
2023/06/24 02:01:23;;;;;;;8.82;3.60;;;18.40;99.90;;;;;;4958814;29;20623;-86
2023/06/24 02:03:49;;;;;;;9.30;4.10;;;18.40;99.90;;;;;;4958864;29;20179;-86
2023/06/24 02:06:17;;;;;;;6.82;3.90;;;18.30;99.90;;;;;;4960563;29;20187;-87
2023/06/24 02:08:43;;;;;;;6.88;3.72;;;18.20;99.90;;;;;;4960931;29;20233;-86
2023/06/24 02:11:10;;;;;;;5.93;3.58;;;18.30;99.90;;;;;;4960703;29;20183;-86
2023/06/24 02:13:39;;;;;;;7.30;3.67;;;18.30;99.90;;;;;;4961917;29;20214;-88
2023/06/24 02:16:08;;;;;;;8.63;3.80;;;18.30;99.90;;;;;;4962843;29;20242;-88
2023/06/24 02:18:42;;;;;;;5.55;3.30;;;18.20;99.90;;;;;;4964317;29;20211;-87
2023/06/24 02:21:08;;;;;;;8.05;3.45;;;18.20;99.90;;;;;;4964362;29;20163;-87
2023/06/24 02:23:36;;;;;;;6.38;3.72;;;18.10;99.90;;;;;;4978120;28;20609;-87
2023/06/24 02:26:03;;;;;;;6.05;3.22;;;18.10;99.90;;;;;;4962708;29;20647;-88
2023/06/24 02:28:30;;;;;;;5.40;3.53;;;18.10;99.90;;;;;;4962619;29;20259;-87
2023/06/24 02:30:57;;;;;;;4.10;2.90;;;18.10;99.90;;;;;;4962301;29;20675;-87
2023/06/24 02:33:23;;;;;;;5.20;3.10;;;18.00;99.90;;;;;;4961730;29;20239;-88
2023/06/24 02:35:53;;;;;;;4.43;2.97;;;18.00;99.90;;;;;;4958761;29;20306;-87
2023/06/24 02:38:19;;;;;;;5.80;3.53;;;18.00;99.90;;;;;;4955947;28;20197;-88
2023/06/24 02:40:49;;;;;;;10.27;3.35;;;18.00;99.90;;;;;;4956821;29;20583;-89
2023/06/24 02:43:21;;;;;;;4.18;3.30;;;17.90;99.90;;;;;;4957994;29;20179;-88
2023/06/24 02:45:50;;;;;;;4.85;3.20;;;17.90;99.90;;;;;;4940690;29;20545;-85
2023/06/24 02:48:27;;;;;;;4.35;3.03;;;17.90;99.90;;;;;;4956404;29;20214;-88
2023/06/24 02:51:13;;;;;;;4.72;3.05;;;17.90;99.90;;;;;;4942359;29;20667;-88
2023/06/24 02:53:39;;;;;;;6.57;3.63;;;17.90;99.90;;;;;;4937953;29;20251;-88
2023/06/24 02:56:10;;;;;;;7.22;3.25;;;17.90;99.90;;;;;;4952695;29;20579;-88
2023/06/24 02:58:43;;;;;;;7.05;3.65;;;17.90;99.90;;;;;;4938324;29;20160;-88
2023/06/24 03:01:13;;;;;;;9.68;3.72;;;17.90;99.90;;;;;;4920953;29;20220;-88
2023/06/24 03:03:39;;;;;;;5.45;2.92;;;17.80;99.90;;;;;;4937822;29;20180;-89
2023/06/24 03:06:12;;;;;;;4.70;3.08;;;17.90;99.90;;;;;;4937799;29;20239;-89
2023/06/24 03:08:39;;;;;;;5.78;3.33;;;17.80;99.90;;;;;;4937919;29;20197;-88
2023/06/24 03:11:07;;;;;;;6.45;3.42;;;17.80;99.90;;;;;;4937475;29;20319;-88
2023/06/24 03:13:44;;;;;;;5.85;4.00;;;17.80;99.90;;;;;;4937832;29;20262;-89
2023/06/24 03:16:12;;;;;;;3.70;2.58;;;17.80;99.90;;;;;;4937440;29;20610;-88
2023/06/24 03:18:42;;;;;;;8.35;3.70;;;17.90;99.90;;;;;;4937836;29;20648;-88
2023/06/24 03:21:09;;;;;;;3.95;2.70;;;17.80;99.90;;;;;;4937590;29;20174;-87
2023/06/24 03:23:39;;;;;;;4.53;3.15;;;17.80;99.90;;;;;;4937590;29;20184;-87
2023/06/24 03:26:08;;;;;;;4.55;2.95;;;17.90;99.90;;;;;;4937458;29;20235;-85
2023/06/24 03:28:38;;;;;;;4.93;3.28;;;17.90;99.90;;;;;;4937953;29;20187;-84
2023/06/24 03:31:16;;;;;;;4.53;3.20;;;17.90;99.90;;;;;;4937209;29;20188;-86
2023/06/24 03:33:56;;;;;;;5.47;3.50;;;17.90;99.90;;;;;;4937518;29;20235;-85
2023/06/24 03:36:23;;;;;;;6.53;3.25;;;17.90;99.90;;;;;;4937567;29;20266;-86
2023/06/24 03:38:49;;;;;;;4.57;3.08;;;17.90;99.90;;;;;;4936935;29;20196;-85
2023/06/24 03:41:22;;;;;;;4.95;3.03;;;18.00;99.90;;;;;;4937143;29;20184;-86
2023/06/24 03:43:48;;;;;;;5.28;3.20;;;18.00;99.90;;;;;;4952156;29;20195;-85
2023/06/24 03:46:14;;;;;;;4.28;2.83;;;18.00;99.90;;;;;;4936968;29;20200;-85
2023/06/24 03:48:53;;;;;;;4.90;3.20;;;17.90;99.90;;;;;;4936605;29;20187;-85
2023/06/24 03:51:21;;;;;;;4.68;2.80;;;18.00;99.90;;;;;;4936655;29;20199;-85
2023/06/24 03:57:25;;;;;;;4.15;2.90;;;18.00;99.90;;;;;;4915672;29;20613;-86
2023/06/24 04:00:19;;;;;;;7.72;3.17;;;18.10;99.90;;;;;;4896721;29;20685;-86
2023/06/24 04:07:00;;;;;;;;;;;;;;;;;;;;;
2023/06/24 04:13:09;;;;;;;4.47;3.15;;;18.00;99.90;;;;;;4822785;29;20226;-85
2023/06/24 04:37:22;;;;;;;5.10;2.55;;;17.90;99.90;;;;;;4664329;30;20656;-86
2023/06/24 04:47:38;;;;;;;;;;;;;;;;;;;;;
2023/06/24 05:00:04;;;;;;;4.90;3.10;;;23.10;99.90;;;;;;4571276;27;15060738;-86
2023/06/24 06:13:36;;;;;;;4.88;3.67;;;19.90;99.90;;;;;;5186196;23;20236;-90
2023/06/24 06:16:01;;;;;;;5.45;3.15;;;19.70;99.90;;;;;;4921038;29;20336;-89
2023/06/24 06:18:27;;;;;;;4.60;3.10;;;19.80;99.90;;;;;;4922043;29;20231;-89
2023/06/24 06:20:52;;;;;;;5.20;3.28;;;19.70;99.90;;;;;;4921964;29;20185;-90
2023/06/24 06:23:18;;;;;;;4.75;2.88;;;19.80;99.90;;;;;;4919687;29;20548;-91
2023/06/24 06:25:44;;;;;;;5.00;3.67;;;19.90;99.90;;;;;;4919493;29;20637;-88
2023/06/24 06:28:09;;;;;;;5.07;2.92;;;20.00;99.90;;;;;;4919774;29;20185;-90
2023/06/24 06:30:35;;;;;;;6.90;3.83;;;20.00;99.90;;;;;;4918762;29;20215;-90
2023/06/24 06:33:01;;;;;;;4.65;2.88;;;20.00;99.90;;;;;;4919884;29;20181;-90
2023/06/24 06:35:26;;;;;;;6.72;3.42;;;20.20;99.90;;;;;;4902354;29;20185;-90
2023/06/24 06:37:53;;;;;;;5.47;3.20;;;20.40;99.90;;;;;;4919870;29;20205;-95
2023/06/24 06:40:20;;;;;;;4.68;2.72;;;20.50;99.90;;;;;;4917483;29;20193;-89
2023/06/24 06:42:46;;;;;;;5.43;3.35;;;20.50;99.90;;;;;;4919211;29;20240;-91
2023/06/24 06:45:11;;;;;;;4.85;3.30;;;20.60;99.90;;;;;;4919050;29;20185;-90
2023/06/24 06:47:37;;;;;;;4.20;3.00;;;20.70;99.90;;;;;;4917206;29;20550;-86
2023/06/24 06:50:08;;;;;;;3.97;2.90;;;20.70;99.90;;;;;;4917551;29;20191;-91
2023/06/24 06:52:54;;;;;;;4.30;2.83;;;20.80;99.90;;;;;;4915262;29;20187;-91
2023/06/24 06:55:35;;;;;;;10.55;3.50;;;21.00;99.90;;;;;;4911723;29;20252;-91
2023/06/24 06:58:19;;;;;;;4.45;2.97;;;21.10;99.90;;;;;;4917216;29;20665;-91
2023/06/24 07:01:01;;;;;;;5.63;2.90;;;21.30;99.90;;;;;;4918172;29;20181;-91
2023/06/24 07:03:33;;;;;;;6.13;2.60;;;21.50;99.90;;;;;;4916822;29;20188;-92
2023/06/24 07:06:10;;;;;;;5.32;3.15;;;21.50;99.90;;;;;;4918776;29;20189;-89
2023/06/24 07:08:39;;;;;;;5.22;2.55;;;21.60;99.90;;;;;;4913050;29;20564;-91
2023/06/24 07:11:10;;;;;;;3.92;2.80;;;21.60;99.90;;;;;;4917990;29;20188;-89
2023/06/24 07:13:56;;;;;;;;;;;;;;;;;;;;;
2023/06/24 07:16:51;;;;;;;5.35;3.22;;;21.70;99.90;;;;;;4916191;29;20204;-89
2023/06/24 07:19:32;;;;;;;6.93;2.88;;;21.80;99.90;;;;;;4879286;29;20246;-89
2023/06/24 07:22:18;;;;;;;5.03;2.38;;;21.90;99.90;;;;;;4917595;29;20208;-89
2023/06/24 07:32:26;;;;;;;3.55;2.15;;;21.90;99.90;;;;;;4887337;29;20201;-89
2023/06/24 07:35:10;;;;;;;;;;;;;;;;;;;;;
2023/06/24 07:38:07;;;;;;;4.95;2.72;;;22.30;99.90;;;;;;4842167;29;20287;-87
2023/06/24 07:40:53;;;;;;;5.38;2.53;;;22.40;99.90;;;;;;4897290;29;20207;-89
2023/06/24 07:44:24;;;;;;;6.05;2.67;;;22.50;99.90;;;;;;4844067;29;20203;-90
2023/06/24 07:47:35;;;;;;;;;;;;;;;;;;;;;
2023/06/24 07:50:45;;;;;;;5.82;2.40;;;23.00;99.90;;;;;;4869741;29;20189;-92
2023/06/24 07:53:13;;;;;;;4.20;2.78;;;22.80;99.90;;;;;;4850632;29;20289;-92
2023/06/24 07:55:41;;;;;;;4.32;2.60;;;;;;;;;;4887715;29;20194;-93
2023/06/24 07:58:38;;;;;;;3.83;2.47;;;23.00;99.90;;;;;;4864490;29;20230;-91
2023/06/24 08:01:36;;;;;;;3.92;2.47;;;23.10;99.90;;;;;;4874086;29;20264;-91
2023/06/24 08:04:13;;;;;;;3.85;2.70;;;23.00;99.90;;;;;;4889222;29;20213;-90
2023/06/24 08:06:53;;;;;;;3.15;2.35;;;23.00;99.90;;;;;;4902713;29;20193;-94
2023/06/24 08:09:41;;;;;;;6.78;3.70;;;22.60;99.90;;;;;;4900288;29;20256;-93
2023/06/24 08:12:07;;;;;;;5.40;2.65;;;22.60;99.90;;;;;;4910216;29;20184;-94
2023/06/24 08:14:33;;;;;;;3.28;2.30;;;;;;;;;;4918877;29;20605;-90
2023/06/24 08:17:02;;;;;;;5.13;2.92;;;23.20;99.90;;;;;;4926174;29;20224;-90
2023/06/24 08:20:29;;;;;;;3.35;2.28;;;23.00;99.90;;;;;;4930124;29;20214;-90
2023/06/24 08:27:08;;;;;;;3.13;2.20;;;22.40;99.90;;;;;;4912930;29;20180;-90
2023/06/24 08:29:58;;;;;;;3.80;2.50;;;22.20;99.90;;;;;;4886860;29;20210;-91
2023/06/24 08:32:27;;;;;;;3.63;2.70;;;;;;;;;;4883115;29;20206;-91
2023/06/24 08:35:28;;;;;;;5.05;3.17;;;23.00;99.90;;;;;;4886180;29;20190;-92
2023/06/24 08:37:57;;;;;;;3.78;2.72;;;22.50;99.90;;;;;;4879612;29;20257;-91
2023/06/24 08:40:28;;;;;;;5.55;3.03;;;22.50;99.90;;;;;;4915388;28;20216;-92
2023/06/24 08:46:30;;;;;;;6.05;2.55;;;22.50;99.90;;;;;;4901106;29;20204;-92
2023/06/24 08:49:24;;;;;;;2.88;2.17;;;22.50;99.60;;;;;;4914343;29;20208;-89
2023/06/24 08:52:33;;;;;;;4.47;2.30;;;22.40;99.30;;;;;;4914061;29;20209;-90
2023/06/24 08:55:27;;;;;;;3.47;2.47;;;22.60;99.90;;;;;;4910675;29;20176;-90
2023/06/24 09:02:06;;;;;;;2.22;1.58;;;22.60;99.90;;;;;;4857165;29;20202;-91
2023/06/24 09:05:06;;;;;;;3.28;2.13;;;22.80;99.90;;;;;;4836042;29;20238;-91
2023/06/24 09:08:52;;;;;;;;;;;;;;;;;;;;;
2023/06/24 09:11:45;;;;;;;3.40;1.90;;;22.80;98.00;;;;;;4822120;29;20208;-89
2023/06/24 09:31:30;;;;;;;5.30;2.25;;;23.40;96.90;;;;;;4804783;29;20196;-91
2023/06/24 09:33:59;;;;;;;2.60;1.95;;;23.30;93.40;;;;;;4878332;29;20231;-89
2023/06/24 09:36:24;;;;;;;2.88;2.08;;;23.30;92.70;;;;;;4905907;29;20212;-88
2023/06/24 09:38:50;;;;;;;4.10;2.10;;;23.40;93.50;;;;;;4915665;29;20220;-88
2023/06/24 09:41:17;;;;;;;2.97;1.98;;;23.50;93.30;;;;;;4920942;29;20193;-88
2023/06/24 09:43:47;;;;;;;2.50;1.98;;;23.50;93.10;;;;;;4933896;29;20216;-89
2023/06/24 09:46:14;;;;;;;2.97;2.30;;;23.60;94.00;;;;;;4921641;29;20696;-89
2023/06/24 09:48:40;;;;;;;3.70;2.35;;;;;;;;;;4919646;29;20220;-89
2023/06/24 09:51:08;;;;;;;3.05;1.70;;;23.80;92.50;;;;;;4920310;29;20188;-90
2023/06/24 09:53:35;;;;;;;3.42;2.05;;;23.70;91.40;;;;;;4920499;29;20215;-90
2023/06/24 09:56:05;;;;;;;2.92;2.22;;;23.70;86.40;;;;;;4919932;29;20732;-88
2023/06/24 09:58:34;;;;;;;2.28;1.70;;;23.70;87.00;;;;;;4919618;29;20708;-87
2023/06/24 10:01:03;;;;;;;2.75;1.98;;;23.50;87.60;;;;;;4919035;29;20188;-87
2023/06/24 10:03:36;;;;;;;3.78;2.13;;;23.50;89.00;;;;;;4919122;29;20193;-92
2023/06/24 10:06:02;;;;;;;2.47;1.98;;;23.60;90.00;;;;;;4917792;29;20172;-90
2023/06/24 10:08:30;;;;;;;2.53;2.00;;;23.70;97.40;;;;;;4918944;29;20247;-90
2023/06/24 10:10:56;;;;;;;3.15;1.98;;;23.30;98.20;;;;;;4918764;29;20184;-89
2023/06/24 10:13:22;;;;;;;3.22;2.00;;;23.30;98.20;;;;;;4918118;29;20208;-89
2023/06/24 10:15:49;;;;;;;2.63;2.00;;;23.70;90.90;;;;;;4918698;29;20255;-90
2023/06/24 10:18:45;;;;;;;5.07;2.00;;;23.70;99.90;;;;;;4918731;29;20223;-90
2023/06/24 10:21:11;;;;;;;3.00;2.00;;;;;;;;;;4903394;29;20204;-90
2023/06/24 10:23:44;;;;;;;2.38;1.73;;;23.50;99.80;;;;;;4919205;29;20188;-89
2023/06/24 10:26:21;;;;;;;3.85;2.17;;;23.40;99.90;;;;;;4917494;29;20721;-89
2023/06/24 10:29:10;;;;;;;4.00;2.15;;;23.80;90.30;;;;;;4919005;29;20196;-90
2023/06/24 10:31:44;;;;;;;6.30;2.50;;;23.90;90.20;;;;;;4926267;29;20294;-89
2023/06/24 10:34:22;;;;;;;6.00;2.30;;;23.50;99.90;;;;;;4912585;29;20536;-88
2023/06/24 10:36:55;;;;;;;3.17;1.77;;;;;;;;;;4915474;29;20193;-90
2023/06/24 10:39:37;;;;;;;3.72;1.77;;;24.00;89.30;;;;;;4915961;29;20251;-88
2023/06/24 10:42:27;;;;;;;4.20;1.98;;;24.10;90.10;;;;;;4916991;29;20195;-87
2023/06/24 10:44:55;;;;;;;2.80;2.00;;;24.10;89.40;;;;;;4916585;29;20196;-87
2023/06/24 10:47:25;;;;;;;2.75;2.00;;;24.10;90.20;;;;;;4913747;29;20546;-89
2023/06/24 10:49:51;;;;;;;4.07;2.47;;;;;;;;;;4904220;29;20186;-88
2023/06/24 10:52:24;;;;;;;5.75;1.98;;;24.10;99.90;;;;;;4916795;29;20266;-86
2023/06/24 10:54:51;;;;;;;3.33;2.10;;;24.30;88.60;;;;;;4916653;29;20717;-87
2023/06/24 10:57:24;;;;;;;4.53;1.95;;;24.20;93.60;;;;;;4916051;29;20532;-91
2023/06/24 10:59:51;;;;;;;4.65;1.85;;;24.30;91.10;;;;;;4917477;29;20204;-90
2023/06/24 11:02:19;;;;;;;3.53;1.75;;;24.30;93.90;;;;;;4916766;29;20196;-89
2023/06/24 11:04:52;;;;;;;2.78;2.00;;;23.70;99.90;;;;;;4915540;29;20535;-87
2023/06/24 11:07:23;;;;;;;2.67;1.83;;;24.30;86.80;;;;;;4917118;29;20188;-88
2023/06/24 11:09:53;;;;;;;3.08;2.05;;;24.60;84.80;;;;;;4918062;29;20216;-90
2023/06/24 11:12:19;;;;;;;4.18;2.75;;;24.30;90.30;;;;;;4918489;29;20181;-88
2023/06/24 11:14:45;;;;;;;2.75;1.65;;;;;;;;;;4917372;29;20634;-89
2023/06/24 11:17:12;;;;;;;4.70;2.47;;;;;;;;;;4915423;29;20255;-90
2023/06/24 11:19:39;;;;;;;3.35;1.80;;;24.20;87.00;;;;;;4917533;29;20219;-90
2023/06/24 11:22:09;;;;;;;3.05;1.70;;;24.30;81.90;;;;;;4916885;29;20251;-90
2023/06/24 11:24:35;;;;;;;2.72;1.85;;;;;;;;;;4917303;29;20216;-91
2023/06/24 11:27:03;;;;;;;3.50;2.17;;;24.20;80.80;;;;;;4916901;29;20657;-90
2023/06/24 11:29:30;;;;;;;3.15;2.05;;;;;;;;;;4916090;29;20272;-89
2023/06/24 11:31:56;;;;;;;2.92;2.00;;;;;;;;;;4915631;29;20196;-89
2023/06/24 11:34:22;;;;;;;3.08;1.58;;;;;;;;;;4917451;29;20181;-89
2023/06/24 11:36:48;;;;;;;3.03;1.83;;;;;;;;;;4916789;29;20191;-90
2023/06/24 11:39:27;;;;;;;2.80;2.25;;;24.30;97.40;;;;;;4917213;29;20219;-90
2023/06/24 11:41:57;;;;;;;2.63;1.95;;;24.60;81.20;;;;;;4915752;29;20185;-90
2023/06/24 11:44:25;;;;;;;9.40;2.78;;;24.50;82.10;;;;;;4932384;29;20187;-92
2023/06/24 11:46:52;;;;;;;4.55;2.20;;;;;;;;;;4920245;29;20272;-91
2023/06/24 11:49:18;;;;;;;3.47;1.80;;;24.50;80.20;;;;;;4939335;29;20207;-90
2023/06/24 11:51:52;;;;;;;3.75;2.58;;;24.50;81.60;;;;;;4920748;29;20177;-90
2023/06/24 11:54:20;;;;;;;2.33;1.80;;;24.50;81.60;;;;;;4928149;28;20200;-90
2023/06/24 11:56:51;;;;;;;3.10;2.20;;;24.40;82.80;;;;;;4916490;29;20185;-89
2023/06/24 11:59:24;;;;;;;2.58;1.95;;;24.90;90.70;;;;;;4904768;29;20248;-90
2023/06/24 12:01:54;;;;;;;2.65;1.73;;;24.40;81.70;;;;;;4917503;29;20181;-90
2023/06/24 12:04:21;;;;;;;2.40;1.83;;;;;;;;;;4903197;29;20196;-91
2023/06/24 12:06:47;;;;;;;3.60;2.03;;;24.20;80.20;;;;;;4911509;29;20263;-92
2023/06/24 12:09:12;;;;;;;2.95;1.83;;;24.10;80.40;;;;;;4921631;29;20650;-92
2023/06/24 12:11:38;;;;;;;3.28;2.40;;;24.40;80.80;;;;;;4927666;29;20196;-91
2023/06/24 12:14:06;;;;;;;4.25;2.60;;;24.00;81.50;;;;;;4930091;29;20233;-93
2023/06/24 12:16:31;;;;;;;3.28;2.13;;;24.00;82.20;;;;;;4901448;28;20267;-93
2023/06/24 12:18:57;;;;;;;2.55;1.73;;;;;;;;;;4940702;28;20240;-92
2023/06/24 12:21:23;;;;;;;4.80;2.15;;;24.00;82.90;;;;;;4936855;28;20196;-93
2023/06/24 12:23:49;;;;;;;3.63;2.13;;;24.10;82.90;;;;;;4909610;29;20539;-92
2023/06/24 12:26:15;;;;;;;8.25;3.60;;;23.60;93.90;;;;;;4922557;29;20193;-90
2023/06/24 12:28:40;;;;;;;3.08;2.30;;;24.00;84.90;;;;;;4916592;29;20184;-91
2023/06/24 12:31:07;;;;;;;6.57;2.47;;;;;;;;;;4916759;29;20279;-94
2023/06/24 12:33:33;;;;;;;2.80;2.20;;;;;;;;;;4917513;29;20185;-92
2023/06/24 12:35:59;;;;;;;4.57;2.90;;;23.90;81.80;;;;;;4900551;29;20653;-90
2023/06/24 12:38:24;;;;;;;3.10;1.90;;;23.90;81.20;;;;;;4917178;29;20223;-89
2023/06/24 12:40:50;;;;;;;2.08;1.52;;;23.90;81.90;;;;;;4915986;29;20188;-90
2023/06/24 12:43:16;;;;;;;3.25;2.05;;;23.80;81.50;;;;;;4915581;29;20548;-92
2023/06/24 12:45:45;;;;;;;4.25;2.25;;;23.80;82.00;;;;;;4902683;29;20184;-89
2023/06/24 12:48:11;;;;;;;3.17;2.28;;;24.40;83.20;;;;;;4922186;29;20191;-90
2023/06/24 12:50:37;;;;;;;2.83;2.33;;;23.90;82.50;;;;;;4915122;29;20190;-90
2023/06/24 12:53:03;;;;;;;3.80;2.30;;;23.90;81.80;;;;;;4906413;29;20244;-89
2023/06/24 12:55:29;;;;;;;5.72;2.70;;;24.00;85.20;;;;;;4923654;29;20196;-92
2023/06/24 12:57:56;;;;;;;5.82;3.70;;;22.40;82.40;;;;;;4921106;29;20530;-91
2023/06/24 13:00:25;;;;;;;5.43;3.05;;;24.40;84.10;;;;;;4921753;29;20191;-90
2023/06/24 13:02:51;;;;;;;2.63;2.22;;;24.60;82.90;;;;;;4923104;29;20256;-92
2023/06/24 13:05:20;;;;;;;3.95;2.35;;;24.70;81.20;;;;;;4922298;29;20240;-92
2023/06/24 13:07:46;;;;;;;2.22;2.00;;;24.70;79.40;;;;;;4904461;29;20185;-90
2023/06/24 13:10:31;;;;;;;3.25;2.20;;;24.70;80.50;;;;;;4919762;29;20195;-94
2023/06/24 13:12:57;;;;;;;4.22;2.05;;;;;;;;;;4915094;29;20529;-91
2023/06/24 13:15:27;;;;;;;5.10;2.67;;;;;;;;;;4921700;29;20240;-90
2023/06/24 13:17:53;;;;;;;3.38;2.40;;;;;;;;;;4921754;29;20200;-90
2023/06/24 13:20:19;;;;;;;3.63;2.03;;;;;;;;;;4924398;29;20185;-90
2023/06/24 13:22:45;;;;;;;3.17;2.08;;;;;;;;;;4906045;29;20219;-91
2023/06/24 13:25:11;;;;;;;5.18;2.03;;;24.90;79.20;;;;;;4924669;29;20228;-90
2023/06/24 13:27:37;;;;;;;6.15;2.45;;;24.90;82.10;;;;;;4926872;29;20180;-91
2023/06/24 13:30:04;;;;;;;3.75;2.22;;;24.90;82.10;;;;;;4929841;29;20188;-90
2023/06/24 13:32:30;;;;;;;3.17;2.15;;;;;;;;;;4931594;29;20255;-92
2023/06/24 13:34:56;;;;;;;3.13;2.35;;;24.80;79.90;;;;;;4932706;29;20202;-91
2023/06/24 13:37:22;;;;;;;4.50;2.67;;;24.80;80.60;;;;;;4929472;29;20212;-90
2023/06/24 13:39:48;;;;;;;2.95;1.83;;;24.70;79.80;;;;;;4928985;29;20276;-91
2023/06/24 13:42:14;;;;;;;2.85;2.15;;;24.50;81.30;;;;;;4926708;29;20765;-91
2023/06/24 13:44:40;;;;;;;3.28;2.22;;;24.40;80.70;;;;;;4925047;29;20177;-90
2023/06/24 13:47:06;;;;;;;3.33;2.30;;;24.40;81.60;;;;;;4922363;29;20196;-90
2023/06/24 13:49:32;;;;;;;5.28;2.25;;;;;;;;;;4923319;29;20204;-89
2023/06/24 13:51:59;;;;;;;4.30;2.25;;;;;;;;;;4924724;29;20664;-90
2023/06/24 13:54:25;;;;;;;2.95;2.25;;;;;;;;;;4924496;29;20313;-89
2023/06/24 13:56:51;;;;;;;3.30;2.58;;;24.00;87.40;;;;;;4927405;29;20191;-89
2023/06/24 13:59:19;;;;;;;6.28;3.67;;;24.00;92.30;;;;;;4934282;29;20217;-90
2023/06/24 14:01:45;;;;;;;4.55;3.10;;;;;;;;;;4938182;28;20193;-87
2023/06/24 14:04:15;;;;;;;4.78;3.22;;;;;;;;;;4924952;29;20189;-90
2023/06/24 14:06:43;;;;;;;6.72;3.45;;;23.80;96.80;;;;;;4923696;29;20192;-88
2023/06/24 14:09:09;;;;;;;6.22;2.67;;;;;;;;;;4918344;29;20216;-88
2023/06/24 14:11:35;;;;;;;5.05;3.33;;;;;;;;;;4919732;29;20223;-89
2023/06/24 14:14:01;;;;;;;4.82;2.92;;;;;;;;;;4919156;29;20613;-88
2023/06/24 14:16:27;;;;;;;4.93;3.15;;;23.20;95.10;;;;;;4918066;29;20537;-91
2023/06/24 14:18:52;;;;;;;6.20;3.72;;;23.20;96.00;;;;;;4918115;29;20673;-91
2023/06/24 14:21:18;;;;;;;5.20;3.90;;;23.30;98.30;;;;;;4918666;29;20185;-92
2023/06/24 14:23:44;;;;;;;8.05;4.25;;;23.10;99.90;;;;;;4904034;29;20189;-90
2023/06/24 14:26:10;;;;;;;7.18;4.25;;;;;;;;;;4922025;29;20221;-92
2023/06/24 14:28:36;;;;;;;6.50;3.90;;;;;;;;;;4924453;29;20188;-91
2023/06/24 14:31:01;;;;;;;7.43;4.57;;;22.30;99.90;;;;;;4922000;29;20544;-91
2023/06/24 14:33:27;;;;;;;8.10;4.55;;;22.20;99.90;;;;;;4904873;29;20188;-91
2023/06/24 14:35:53;;;;;;;5.85;4.10;;;22.10;99.90;;;;;;4906215;29;20187;-92
2023/06/24 14:38:19;;;;;;;7.40;4.80;;;22.10;99.90;;;;;;4924464;29;20204;-89
2023/06/24 14:40:45;;;;;;;7.50;4.88;;;;;;;;;;4923500;29;20255;-90
2023/06/24 14:43:10;;;;;;;7.07;3.95;;;21.90;99.90;;;;;;4922802;29;20193;-92
2023/06/24 14:45:36;;;;;;;5.53;3.83;;;21.80;99.90;;;;;;4926556;29;20181;-90
2023/06/24 14:48:02;;;;;;;6.03;4.00;;;21.80;99.90;;;;;;4910013;29;20344;-89
2023/06/24 14:50:28;;;;;;;4.57;3.28;;;21.90;99.90;;;;;;4922889;29;20188;-90
2023/06/24 14:52:54;;;;;;;4.53;3.40;;;;;;;;;;4925548;29;20280;-90
2023/06/24 14:55:19;;;;;;;4.88;3.03;;;21.90;99.90;;;;;;4929668;29;20209;-90
2023/06/24 14:57:45;;;;;;;4.70;3.20;;;22.00;99.90;;;;;;4928754;29;20189;-91
2023/06/24 15:00:11;;;;;;;4.53;2.83;;;21.90;99.90;;;;;;4925097;29;20188;-91
2023/06/24 15:02:37;;;;;;;4.68;3.33;;;21.90;99.90;;;;;;4918153;29;20541;-93
2023/06/24 15:05:03;;;;;;;6.38;4.05;;;21.90;99.90;;;;;;4902961;29;20185;-90
2023/06/24 15:07:29;;;;;;;5.15;3.53;;;21.90;99.90;;;;;;4918802;29;20181;-91
2023/06/24 15:09:55;;;;;;;5.18;3.20;;;22.00;99.90;;;;;;4919849;29;20185;-90
2023/06/24 15:12:20;;;;;;;5.93;3.38;;;22.10;99.90;;;;;;4902347;29;20514;-90
2023/06/24 15:14:48;;;;;;;4.55;3.45;;;22.20;99.90;;;;;;4918692;29;20323;-90
2023/06/24 15:17:14;;;;;;;5.10;3.50;;;22.30;99.90;;;;;;4928744;29;20183;-93
2023/06/24 15:19:39;;;;;;;4.72;2.60;;;22.30;99.90;;;;;;4918293;29;20216;-91
2023/06/24 15:22:05;;;;;;;4.57;3.28;;;22.40;99.90;;;;;;4918567;29;20259;-91
2023/06/24 15:24:32;;;;;;;4.10;2.85;;;22.50;99.90;;;;;;4902440;29;20658;-91
2023/06/24 15:26:58;;;;;;;4.55;2.88;;;22.60;99.90;;;;;;4923823;29;20235;-91
2023/06/24 15:29:25;;;;;;;4.45;3.00;;;22.60;99.90;;;;;;4929373;29;20227;-90
2023/06/24 15:31:50;;;;;;;5.35;2.88;;;22.60;99.90;;;;;;4922472;29;20180;-90
2023/06/24 15:34:16;;;;;;;4.63;3.17;;;22.60;99.90;;;;;;4886208;29;20184;-92
2023/06/24 15:36:43;;;;;;;4.63;3.10;;;22.60;99.90;;;;;;4886160;29;20545;-91
2023/06/24 15:39:09;;;;;;;5.05;3.17;;;22.60;99.90;;;;;;4917899;29;20208;-90
2023/06/24 15:41:36;;;;;;;4.40;3.17;;;22.60;99.90;;;;;;4918696;29;20642;-90
2023/06/24 15:44:05;;;;;;;7.15;3.00;;;22.40;99.50;;;;;;4917888;29;20668;-90
2023/06/24 15:46:31;;;;;;;3.97;3.03;;;;;;;;;;4917272;29;20553;-91
2023/06/24 15:48:57;;;;;;;3.55;2.60;;;22.30;98.00;;;;;;4916678;29;20193;-90
2023/06/24 15:51:22;;;;;;;4.22;3.30;;;22.30;98.20;;;;;;4916672;29;20184;-91
2023/06/24 15:53:48;;;;;;;4.55;3.05;;;22.20;98.40;;;;;;4918165;29;20204;-91
2023/06/24 15:56:14;;;;;;;5.50;2.80;;;22.20;98.40;;;;;;4916953;29;20284;-91
2023/06/24 15:58:40;;;;;;;7.25;3.45;;;22.20;98.30;;;;;;4916749;29;20247;-91
2023/06/24 16:01:05;;;;;;;4.90;3.20;;;22.10;97.60;;;;;;4918728;29;20207;-91
2023/06/24 16:03:31;;;;;;;4.78;3.00;;;22.10;98.10;;;;;;4916813;29;20192;-93
2023/06/24 16:05:57;;;;;;;4.97;3.17;;;22.10;97.20;;;;;;4901354;29;20184;-93